Terminal Aerodrome Forecast
Issued by NWS

Home | Current Version | Previous Version | Text Only | Print | Product List | Glossary On
Versions: 1 2 3 4 5 6 7 8 9 10 11 12 13 14 15 16 17 18 19 20 21 22 23 24 25 26 27 28 29 30 31 32 33 34 35 36
000
FTUS41 KBTV 282005 AAB
TAFPBG
TAF AMD
KPBG 282005Z 2820/2918 01004KT P6SM VCSH BKN006 OVC015
      TEMPO 2820/2824 2SM -SHRA BR OVC004
     FM290500 33005KT 5SM BR OVC020
     FM291200 34008KT P6SM BKN040=

USA.gov is the U.S. government's official web portal to all federal, state and local government web resources and services.